Strona główna
METAR-TAF:

METAR-TAF

Lotnisko :

Port lotniczy Carcassonne

Carcassonne, Francja

Szerokość geograficzna: 43-13N, Długość geograficzna: 002-19E, wysokość: 130 m

Aktualna obserwacja pogody

Raport powstał 31 minut temu, godzina 18:30 UTC
Wiatr 15 kt od wschodnio-północny wschód
Temperatura 27°C
Wilgotność 45%
Ciśnienie 1010 hPa
Widzialność 10 km lub więcej
Brak chmur poniżej 1500 m i brak chmur cumulonimbus

METAR: LFMK 251830Z AUTO 07015KT CAVOK 27/14 Q1010

czas: 21:01 (19:01 UTC)

Prognoza

Raport powstał 5 godziny i 1 minut temu, godzina 14:00 UTC
Prognoza ważna od 25 godzina 15 UTC do 26 godzina 15 UTC
Wiatr 10 kt od wschód
Widzialność 10 km lub więcej
Brak chmur poniżej 1500 m i brak chmur cumulonimbus
Przejściowo
od 26 godzina 02 UTC do 26 godzina 08 UTC
Przerywane chmury na wysokości 600 ft

TAF: LFMK 251400Z 2515/2615 08010KT CAVOK TEMPO 2602/2608 BKN006

Obserwacja i prognoza pogody dla ponad 4000 lotnisk (raport METAR i TAF).

Dostępne stacje oznaczono żółtymi i czerwonymi punktami na mapie.

Najedź kursorem aby zobaczyć nazwę stacji.

Kliknij aby zobaczyć obserwacje i prognozy pogody.

Aby zmienić mapę: kliknij na zielony przycisk z czarnym krzyżykiem, aby powiększyć; na zielony przycisk z myślnikiem, aby pomniejszyć; na zielone strzałki, aby przejść do map sąsiednich.


METAR-TAF: